createdAt,value
2019-04-30T00:01:32.832Z,99.90
2019-04-30T00:03:59.430Z,99.90
2019-04-30T00:06:21.733Z,99.90
2019-04-30T00:08:42.964Z,99.90
2019-04-30T00:11:05.350Z,99.90
2019-04-30T00:13:26.650Z,99.90
2019-04-30T00:15:52.432Z,99.90
2019-04-30T00:18:10.952Z,99.90
2019-04-30T00:20:37.209Z,99.90
2019-04-30T00:22:55.347Z,99.90
2019-04-30T00:25:19.684Z,99.90
2019-04-30T00:27:39.769Z,99.90
2019-04-30T00:30:05.396Z,99.90
2019-04-30T00:32:25.834Z,99.90
2019-04-30T00:34:47.208Z,99.90
2019-04-30T00:37:13.756Z,99.90
2019-04-30T00:39:35.522Z,99.90
2019-04-30T00:41:56.905Z,99.90
2019-04-30T00:44:19.857Z,99.90
2019-04-30T00:46:41.245Z,99.90
2019-04-30T00:49:09.036Z,99.90
2019-04-30T00:51:26.166Z,99.90
2019-04-30T00:53:51.296Z,99.90
2019-04-30T00:56:10.719Z,99.90
2019-04-30T00:58:31.889Z,99.90
2019-04-30T01:00:59.738Z,99.90
2019-04-30T01:03:22.583Z,99.90
2019-04-30T01:05:47.735Z,99.90
2019-04-30T01:08:07.142Z,99.90
2019-04-30T01:10:28.509Z,99.90
2019-04-30T01:12:50.366Z,99.90
2019-04-30T01:15:14.401Z,99.90
2019-04-30T01:17:34.974Z,99.90
2019-04-30T01:19:56.340Z,99.90
2019-04-30T01:22:21.281Z,99.90
2019-04-30T01:24:40.827Z,99.90
2019-04-30T01:27:06.730Z,99.90
2019-04-30T01:29:25.996Z,99.90
2019-04-30T01:31:48.799Z,99.90
2019-04-30T01:34:13.861Z,99.90
2019-04-30T01:36:33.369Z,99.90
2019-04-30T01:38:54.544Z,99.90
2019-04-30T01:41:20.285Z,99.90
2019-04-30T01:43:38.905Z,99.90
2019-04-30T01:46:03.259Z,99.90
2019-04-30T01:48:23.271Z,99.90
2019-04-30T01:50:44.437Z,99.90
2019-04-30T01:53:11.508Z,99.90
2019-04-30T01:55:41.482Z,99.90
2019-04-30T01:58:13.787Z,99.90
2019-04-30T02:00:39.647Z,99.90
2019-04-30T02:03:01.345Z,99.90
2019-04-30T02:05:22.612Z,99.90
2019-04-30T02:07:45.921Z,99.90
2019-04-30T02:10:08.737Z,99.90
2019-04-30T02:12:30.063Z,99.90
2019-04-30T02:14:51.843Z,99.90
2019-04-30T02:17:13.189Z,99.90
2019-04-30T02:19:34.364Z,99.90
2019-04-30T02:21:55.554Z,99.90
2019-04-30T02:24:19.035Z,99.90
2019-04-30T02:26:39.851Z,99.90
2019-04-30T02:29:01.041Z,99.90
2019-04-30T02:31:23.094Z,99.90
2019-04-30T02:33:46.355Z,99.90
2019-04-30T02:36:10.298Z,99.90
2019-04-30T02:38:33.612Z,99.90
2019-04-30T02:40:55.686Z,99.90
2019-04-30T02:43:20.397Z,99.90
2019-04-30T02:45:44.739Z,99.90
2019-04-30T02:48:11.399Z,99.90
2019-04-30T02:50:32.309Z,99.90
2019-04-30T02:52:54.910Z,99.90
2019-04-30T02:55:22.679Z,99.90
2019-04-30T02:57:43.856Z,99.90
2019-04-30T03:00:13.377Z,99.90
2019-04-30T03:02:34.763Z,99.90
2019-04-30T03:04:56.166Z,99.90
2019-04-30T03:07:19.403Z,99.90
2019-04-30T03:09:40.699Z,99.90
2019-04-30T03:12:01.867Z,99.90
2019-04-30T03:14:23.064Z,99.90
2019-04-30T03:16:53.235Z,99.90
2019-04-30T03:19:19.669Z,99.90
2019-04-30T03:21:42.852Z,99.90
2019-04-30T03:24:04.037Z,99.90
2019-04-30T03:26:25.225Z,99.90
2019-04-30T03:28:46.410Z,99.90
2019-04-30T03:31:11.991Z,99.90
2019-04-30T03:33:32.674Z,99.90
2019-04-30T03:35:55.073Z,99.90
2019-04-30T03:38:16.679Z,99.90
2019-04-30T03:40:40.337Z,99.90
2019-04-30T03:43:03.151Z,99.90
2019-04-30T03:45:24.042Z,99.90
2019-04-30T03:47:45.336Z,99.90
2019-04-30T03:50:06.634Z,99.90
2019-04-30T03:52:29.202Z,99.90
2019-04-30T03:54:50.609Z,99.90
2019-04-30T03:57:12.799Z,99.90
2019-04-30T03:59:33.992Z,99.90
2019-04-30T04:01:59.577Z,99.90
2019-04-30T04:04:39.763Z,99.90
2019-04-30T04:07:05.986Z,99.90
2019-04-30T04:09:34.661Z,99.90
2019-04-30T04:11:59.860Z,99.90
2019-04-30T04:14:20.875Z,99.90
2019-04-30T04:16:42.259Z,99.90
2019-04-30T04:19:03.589Z,99.90
2019-04-30T04:21:24.797Z,99.90
2019-04-30T04:23:46.209Z,99.90
2019-04-30T04:26:09.418Z,99.90
2019-04-30T04:28:30.663Z,99.90
2019-04-30T04:30:51.885Z,99.90
2019-04-30T04:33:13.062Z,99.90
2019-04-30T04:35:34.258Z,99.90
2019-04-30T04:37:55.444Z,99.90
2019-04-30T04:40:17.111Z,99.90
2019-04-30T04:42:39.596Z,99.90
2019-04-30T04:45:00.978Z,99.90
2019-04-30T04:47:22.632Z,99.90
2019-04-30T04:49:43.841Z,99.90
2019-04-30T04:52:05.009Z,99.90
2019-04-30T04:54:26.331Z,99.90
2019-04-30T04:56:52.875Z,99.90
2019-04-30T04:59:10.633Z,99.90
2019-04-30T05:01:31.817Z,99.90
2019-04-30T05:03:54.985Z,99.90
2019-04-30T05:06:16.267Z,99.90
2019-04-30T05:08:37.469Z,99.90
2019-04-30T05:10:59.474Z,99.90
2019-04-30T05:13:20.829Z,99.90
2019-04-30T05:15:42.031Z,99.90
2019-04-30T05:18:03.199Z,99.90
2019-04-30T05:20:24.447Z,99.90
2019-04-30T05:22:45.629Z,99.90
2019-04-30T05:25:08.837Z,99.90
2019-04-30T05:27:30.369Z,99.90
2019-04-30T05:29:51.843Z,99.90
2019-04-30T05:32:13.028Z,99.90
2019-04-30T05:34:34.213Z,99.90
2019-04-30T05:36:55.409Z,99.90
2019-04-30T05:39:18.730Z,99.90
2019-04-30T05:41:41.142Z,99.90
2019-04-30T05:44:02.568Z,99.90
2019-04-30T05:46:23.871Z,99.90
2019-04-30T05:48:45.045Z,99.90
2019-04-30T05:51:06.271Z,99.90
2019-04-30T05:53:28.677Z,99.90
2019-04-30T05:55:50.063Z,99.90
2019-04-30T05:58:11.319Z,99.90
2019-04-30T06:00:32.607Z,99.90
2019-04-30T06:02:53.795Z,99.90
2019-04-30T06:05:14.971Z,99.90
2019-04-30T06:07:36.271Z,99.90
2019-04-30T06:10:05.271Z,99.90
2019-04-30T06:12:28.676Z,99.90
2019-04-30T06:14:51.987Z,99.90
2019-04-30T06:17:15.148Z,99.90
2019-04-30T06:19:36.312Z,99.90
2019-04-30T06:22:07.211Z,99.90
2019-04-30T06:24:20.807Z,99.90
2019-04-30T06:26:42.040Z,99.90
2019-04-30T06:29:03.309Z,99.90
2019-04-30T06:31:32.357Z,99.90
2019-04-30T06:33:48.717Z,99.90
2019-04-30T06:36:11.191Z,99.90
2019-04-30T06:38:32.491Z,99.90
2019-04-30T06:40:53.793Z,99.90
2019-04-30T06:43:15.299Z,99.90
2019-04-30T06:45:38.651Z,99.90
2019-04-30T06:48:02.433Z,99.90
2019-04-30T06:50:23.684Z,99.90
2019-04-30T06:52:54.222Z,99.90
2019-04-30T06:55:09.474Z,99.90
2019-04-30T06:57:30.766Z,99.90
2019-04-30T06:59:51.954Z,99.90
2019-04-30T07:02:13.307Z,99.90
2019-04-30T07:04:34.486Z,99.90
2019-04-30T07:06:59.040Z,99.90
2019-04-30T07:09:33.566Z,99.90
2019-04-30T07:11:52.892Z,99.90
2019-04-30T07:14:14.146Z,99.90
2019-04-30T07:16:35.396Z,99.90
2019-04-30T07:18:58.510Z,99.90
2019-04-30T07:21:20.066Z,99.90
2019-04-30T07:23:41.384Z,99.90
2019-04-30T07:26:02.624Z,99.90
2019-04-30T07:28:42.729Z,99.90
2019-04-30T07:30:51.272Z,99.90
2019-04-30T07:33:12.295Z,99.90
2019-04-30T07:35:33.613Z,99.90
2019-04-30T07:37:59.703Z,99.90
2019-04-30T07:40:19.012Z,99.90
2019-04-30T07:42:44.913Z,99.90
2019-04-30T07:45:05.200Z,99.90
2019-04-30T07:47:29.405Z,99.90
2019-04-30T07:49:55.156Z,99.90
2019-04-30T07:52:13.561Z,99.90
2019-04-30T07:54:35.201Z,99.90
2019-04-30T07:56:56.788Z,99.90
2019-04-30T07:59:20.211Z,99.90
2019-04-30T08:02:00.524Z,99.90
2019-04-30T08:04:06.162Z,99.90
2019-04-30T08:06:31.142Z,99.90
2019-04-30T08:08:56.839Z,99.90
2019-04-30T08:11:25.335Z,99.90
2019-04-30T08:13:40.521Z,99.90
2019-04-30T08:16:01.400Z,99.90
2019-04-30T08:18:22.711Z,99.90
2019-04-30T08:20:43.905Z,99.90
2019-04-30T08:23:15.611Z,99.90
2019-04-30T08:25:29.095Z,99.90
2019-04-30T08:27:50.472Z,99.90
2019-04-30T08:30:21.412Z,99.90
2019-04-30T08:32:34.987Z,99.90
2019-04-30T08:34:56.185Z,99.90
2019-04-30T08:37:19.976Z,99.90
2019-04-30T08:39:40.712Z,99.90
2019-04-30T08:42:02.022Z,99.90
2019-04-30T08:44:23.200Z,99.90
2019-04-30T08:46:44.384Z,99.90
2019-04-30T08:49:11.349Z,99.90
2019-04-30T08:51:32.584Z,99.90
2019-04-30T08:53:53.782Z,99.90
2019-04-30T08:56:14.969Z,99.90
2019-04-30T08:58:36.176Z,99.90
2019-04-30T09:00:58.771Z,99.90
2019-04-30T09:03:20.157Z,99.90
2019-04-30T09:05:43.237Z,99.90
2019-04-30T09:08:06.425Z,99.70
2019-04-30T09:10:29.268Z,99.40
2019-04-30T09:12:51.927Z,99.60
2019-04-30T09:15:13.317Z,99.40
2019-04-30T09:17:34.500Z,99.50
2019-04-30T09:19:55.691Z,98.40
2019-04-30T09:22:16.864Z,98.10
2019-04-30T09:24:39.247Z,98.40
2019-04-30T09:27:03.328Z,98.10
2019-04-30T09:29:25.004Z,97.70
2019-04-30T09:31:49.282Z,95.70
2019-04-30T09:34:17.040Z,95.20
2019-04-30T09:36:35.681Z,94.70
2019-04-30T09:38:58.817Z,95.10
2019-04-30T09:41:19.952Z,93.30
2019-04-30T09:43:41.154Z,94.00
2019-04-30T09:46:02.330Z,93.30
2019-04-30T09:48:24.511Z,93.80
2019-04-30T09:50:46.036Z,94.00
2019-04-30T09:53:09.548Z,92.50
2019-04-30T09:55:30.713Z,93.10
2019-04-30T09:57:52.040Z,93.30
2019-04-30T10:00:14.561Z,92.40
2019-04-30T10:02:35.831Z,90.90
2019-04-30T10:04:57.477Z,91.20
2019-04-30T10:07:19.502Z,90.80
2019-04-30T10:09:40.842Z,89.80
2019-04-30T10:12:06.938Z,88.60
2019-04-30T10:14:28.121Z,87.80
2019-04-30T10:16:54.038Z,83.30
2019-04-30T10:19:15.222Z,83.50
2019-04-30T10:21:36.435Z,83.10
2019-04-30T10:24:11.917Z,82.20
2019-04-30T10:26:21.017Z,82.50
2019-04-30T10:28:43.353Z,80.40
2019-04-30T10:31:04.546Z,75.80
2019-04-30T10:33:28.646Z,77.60
2019-04-30T10:35:53.755Z,76.20
2019-04-30T10:38:15.385Z,74.00
2019-04-30T10:40:38.913Z,76.40
2019-04-30T10:43:02.364Z,75.70
2019-04-30T10:45:23.856Z,77.30
2019-04-30T10:47:49.216Z,75.70
2019-04-30T10:50:11.267Z,76.80
2019-04-30T10:52:33.055Z,75.40
2019-04-30T10:54:54.664Z,70.60
2019-04-30T10:57:15.945Z,70.80
2019-04-30T10:59:38.449Z,68.40
2019-04-30T11:01:59.638Z,66.90
2019-04-30T11:04:20.833Z,68.20
2019-04-30T11:06:42.019Z,69.40
2019-04-30T11:09:07.956Z,71.30
2019-04-30T11:11:30.670Z,71.10
2019-04-30T11:13:51.958Z,72.40
2019-04-30T11:16:15.540Z,69.00
2019-04-30T11:18:36.505Z,63.40
2019-04-30T11:20:59.618Z,65.50
2019-04-30T11:23:21.377Z,61.20
2019-04-30T11:25:43.426Z,63.80
2019-04-30T11:28:05.837Z,63.90
2019-04-30T11:30:29.510Z,65.10
2019-04-30T11:32:50.815Z,65.30
2019-04-30T11:35:12.332Z,66.60
2019-04-30T11:37:33.504Z,64.00
2019-04-30T11:39:54.909Z,61.70
2019-04-30T11:42:16.367Z,59.70
2019-04-30T11:44:38.679Z,59.00
2019-04-30T11:47:09.359Z,58.30
2019-04-30T11:49:30.811Z,56.30
2019-04-30T11:51:52.000Z,57.00
2019-04-30T11:54:13.174Z,56.80
2019-04-30T11:56:34.365Z,56.80
2019-04-30T11:58:55.572Z,57.40
2019-04-30T12:01:19.489Z,56.60
2019-04-30T12:03:41.068Z,56.70
2019-04-30T12:06:02.370Z,56.80
2019-04-30T12:08:26.629Z,56.30
2019-04-30T12:10:49.844Z,56.10
2019-04-30T12:13:24.405Z,53.40
2019-04-30T12:15:45.604Z,52.70
2019-04-30T12:18:06.780Z,54.10
2019-04-30T12:20:27.978Z,53.40
2019-04-30T12:22:49.387Z,54.70
2019-04-30T12:25:10.956Z,51.30
2019-04-30T12:27:32.189Z,52.00
2019-04-30T12:29:53.501Z,51.40
2019-04-30T12:32:14.709Z,50.40
2019-04-30T12:34:35.883Z,52.20
2019-04-30T12:36:57.075Z,51.00
2019-04-30T12:39:18.266Z,51.00
2019-04-30T12:41:42.049Z,51.10
2019-04-30T12:44:03.326Z,50.50
2019-04-30T12:46:24.521Z,49.50
2019-04-30T12:48:50.375Z,50.10
2019-04-30T12:51:31.407Z,47.60
2019-04-30T12:54:00.529Z,48.40
2019-04-30T12:56:41.725Z,47.90
2019-04-30T12:59:03.407Z,48.10
2019-04-30T13:01:24.824Z,49.10
2019-04-30T13:03:55.892Z,49.30
2019-04-30T13:06:11.131Z,49.70
2019-04-30T13:08:33.535Z,48.10
2019-04-30T13:10:55.507Z,49.40
2019-04-30T13:13:17.699Z,48.70
2019-04-30T13:15:40.630Z,47.20
2019-04-30T13:18:01.881Z,45.30
2019-04-30T13:20:24.059Z,44.70
2019-04-30T13:22:45.547Z,44.60
2019-04-30T13:25:06.948Z,44.50
2019-04-30T13:27:30.153Z,43.00
2019-04-30T13:30:01.792Z,43.40
2019-04-30T13:32:30.086Z,43.40
2019-04-30T13:34:50.912Z,43.10
2019-04-30T13:37:12.102Z,42.00
2019-04-30T13:39:47.518Z,42.90
2019-04-30T13:42:15.138Z,42.90
2019-04-30T13:44:32.895Z,42.80
2019-04-30T13:46:55.981Z,44.00
2019-04-30T13:49:17.150Z,42.30
2019-04-30T13:51:38.372Z,40.70
2019-04-30T13:53:59.566Z,40.00
2019-04-30T13:56:20.739Z,41.40
2019-04-30T13:58:41.955Z,38.00
2019-04-30T14:01:03.556Z,35.70
2019-04-30T14:03:29.273Z,35.80
2019-04-30T14:05:51.617Z,35.60
2019-04-30T14:08:32.498Z,35.10
2019-04-30T14:10:53.713Z,34.50
2019-04-30T14:13:19.105Z,33.60
2019-04-30T14:15:56.932Z,34.80
2019-04-30T14:18:11.325Z,33.60
2019-04-30T14:20:32.719Z,33.20
2019-04-30T14:22:53.911Z,33.10
2019-04-30T14:25:15.308Z,33.20
2019-04-30T14:27:48.802Z,33.50
2019-04-30T14:29:59.770Z,32.90
2019-04-30T14:32:20.971Z,34.30
2019-04-30T14:34:42.179Z,32.70
2019-04-30T14:37:03.864Z,33.60
2019-04-30T14:39:25.096Z,33.70
2019-04-30T14:41:49.105Z,34.00
2019-04-30T14:44:16.374Z,33.80
2019-04-30T14:46:54.910Z,34.40
2019-04-30T14:49:36.524Z,33.80
2019-04-30T14:51:59.595Z,33.30
2019-04-30T14:54:32.238Z,33.20
2019-04-30T14:56:56.666Z,33.80
2019-04-30T14:59:36.140Z,31.90
2019-04-30T15:01:59.273Z,31.60
2019-04-30T15:04:39.296Z,32.10
2019-04-30T15:07:00.728Z,32.90
2019-04-30T15:09:22.525Z,34.30
2019-04-30T15:11:43.796Z,33.70
2019-04-30T15:14:04.988Z,33.00
2019-04-30T15:16:26.164Z,32.60
2019-04-30T15:18:47.766Z,32.40
2019-04-30T15:21:09.577Z,31.80
2019-04-30T15:23:38.820Z,33.10
2019-04-30T15:26:00.000Z,32.70
2019-04-30T15:28:21.204Z,30.90
2019-04-30T15:30:42.427Z,33.20
2019-04-30T15:33:22.099Z,32.10
2019-04-30T15:35:43.303Z,32.50
2019-04-30T15:38:04.579Z,31.90
2019-04-30T15:40:25.810Z,32.10
2019-04-30T15:42:49.148Z,32.80
2019-04-30T15:45:11.510Z,32.20
2019-04-30T15:47:32.800Z,32.00
2019-04-30T15:49:54.083Z,31.70
2019-04-30T15:52:15.257Z,32.20
2019-04-30T15:54:36.442Z,33.30
2019-04-30T15:57:00.248Z,33.30
2019-04-30T15:59:34.305Z,33.30
2019-04-30T16:01:57.401Z,32.20
2019-04-30T16:04:20.505Z,33.10
2019-04-30T16:06:41.699Z,33.40
2019-04-30T16:09:24.143Z,32.40
2019-04-30T16:11:49.100Z,33.30
2019-04-30T16:16:53.139Z,34.20
2019-04-30T16:19:14.322Z,33.00
2019-04-30T16:21:35.530Z,32.40
2019-04-30T16:23:58.483Z,32.60
2019-04-30T16:26:20.048Z,33.60
2019-04-30T16:28:41.225Z,33.50
2019-04-30T16:31:02.539Z,33.00
2019-04-30T16:33:24.016Z,32.60
2019-04-30T16:35:45.219Z,32.50
2019-04-30T16:38:06.516Z,32.20
2019-04-30T16:40:29.024Z,33.40
2019-04-30T16:42:52.301Z,33.00
2019-04-30T16:45:13.702Z,32.60
2019-04-30T16:47:34.981Z,32.20
2019-04-30T16:49:56.221Z,32.80
2019-04-30T16:52:19.016Z,33.90
2019-04-30T16:54:41.661Z,34.80
2019-04-30T16:57:06.485Z,35.90
2019-04-30T16:59:30.449Z,36.00
2019-04-30T17:01:57.841Z,34.90
2019-04-30T17:04:19.270Z,32.60
2019-04-30T17:06:59.215Z,32.20
2019-04-30T17:09:38.771Z,33.30
2019-04-30T17:12:03.193Z,34.10
2019-04-30T17:14:24.443Z,34.10
2019-04-30T17:16:45.639Z,34.50
2019-04-30T17:19:08.908Z,34.70
2019-04-30T17:21:29.918Z,35.80
2019-04-30T17:23:51.370Z,37.10
2019-04-30T17:26:12.639Z,36.60
2019-04-30T17:28:33.817Z,37.10
2019-04-30T17:30:55.156Z,36.50
2019-04-30T17:33:16.484Z,37.60
2019-04-30T17:35:38.842Z,36.20
2019-04-30T17:38:00.485Z,36.80
2019-04-30T17:40:22.230Z,36.60
2019-04-30T17:42:43.414Z,35.50
2019-04-30T17:45:06.807Z,36.30
2019-04-30T17:47:28.794Z,36.10
2019-04-30T17:49:50.849Z,37.30
2019-04-30T17:52:12.353Z,41.00
2019-04-30T17:54:33.557Z,40.50
2019-04-30T17:56:54.748Z,41.60
2019-04-30T17:59:15.940Z,42.40
2019-04-30T18:01:39.972Z,42.50
2019-04-30T18:04:01.209Z,42.70
2019-04-30T18:06:22.395Z,42.90
2019-04-30T18:08:43.929Z,43.70
2019-04-30T18:11:05.518Z,43.20
2019-04-30T18:13:26.701Z,43.90
2019-04-30T18:15:48.395Z,44.00
2019-04-30T18:18:11.807Z,44.90
2019-04-30T18:20:34.905Z,46.20
2019-04-30T18:23:00.891Z,48.80
2019-04-30T18:25:32.552Z,47.90
2019-04-30T18:27:59.501Z,48.70
2019-04-30T18:33:52.677Z,50.10
2019-04-30T18:36:14.672Z,49.60
2019-04-30T18:38:36.426Z,49.00
2019-04-30T18:40:59.477Z,49.90
2019-04-30T18:43:21.005Z,50.80
2019-04-30T18:45:42.662Z,51.60
2019-04-30T18:48:04.305Z,52.20
2019-04-30T18:50:26.262Z,53.20
2019-04-30T18:52:50.658Z,54.80
2019-04-30T18:55:33.083Z,56.80
2019-04-30T18:57:56.854Z,59.00
2019-04-30T19:00:20.302Z,60.20
2019-04-30T19:02:42.409Z,60.60
2019-04-30T19:05:06.646Z,61.90
2019-04-30T19:07:35.713Z,63.50
2019-04-30T19:10:10.590Z,65.20
2019-04-30T19:12:45.836Z,67.30
2019-04-30T19:15:48.559Z,68.90
2019-04-30T19:18:18.402Z,70.50
2019-04-30T19:20:42.094Z,72.30
2019-04-30T19:23:12.287Z,73.90
2019-04-30T19:25:38.690Z,74.70
2019-04-30T19:28:11.658Z,76.60
2019-04-30T19:30:26.234Z,78.30
2019-04-30T19:32:50.272Z,79.90
2019-04-30T19:35:12.378Z,81.10
2019-04-30T19:37:34.508Z,82.00
2019-04-30T19:39:56.072Z,82.60
2019-04-30T19:42:18.749Z,83.70
2019-04-30T19:44:41.324Z,84.90
2019-04-30T19:47:03.600Z,85.70
2019-04-30T19:49:25.056Z,86.40
2019-04-30T19:51:53.199Z,87.30
2019-04-30T19:54:16.507Z,88.60
2019-04-30T19:56:39.239Z,89.40
2019-04-30T19:59:05.673Z,89.60
2019-04-30T20:01:31.089Z,90.00
2019-04-30T20:03:52.394Z,90.30
2019-04-30T20:06:24.782Z,90.70
2019-04-30T20:08:50.179Z,91.00
2019-04-30T20:14:25.443Z,91.20
2019-04-30T20:16:48.644Z,91.70
2019-04-30T20:19:10.259Z,91.90
2019-04-30T20:21:53.942Z,91.90
2019-04-30T20:24:15.483Z,92.10
2019-04-30T20:26:37.164Z,92.10
2019-04-30T20:28:59.207Z,92.30
2019-04-30T20:31:20.570Z,93.00
2019-04-30T20:33:42.306Z,93.30
2019-04-30T20:36:03.840Z,93.90
2019-04-30T20:38:47.995Z,93.90
2019-04-30T20:41:11.213Z,94.50
2019-04-30T20:43:32.439Z,94.80
2019-04-30T20:45:54.181Z,95.00
2019-04-30T20:48:15.459Z,95.20
2019-04-30T20:50:36.684Z,95.70
2019-04-30T20:52:58.901Z,96.40
2019-04-30T20:55:20.629Z,96.80
2019-04-30T20:57:41.825Z,97.00
2019-04-30T21:00:06.631Z,97.30
2019-04-30T21:02:29.850Z,97.80
2019-04-30T21:04:51.083Z,97.70
2019-04-30T21:07:12.285Z,97.60
2019-04-30T21:09:33.500Z,97.60
2019-04-30T21:11:54.796Z,97.50
2019-04-30T21:14:16.008Z,97.70
2019-04-30T21:16:37.609Z,97.90
2019-04-30T21:18:58.898Z,98.20
2019-04-30T21:21:20.538Z,98.60
2019-04-30T21:23:42.362Z,98.20
2019-04-30T21:26:03.670Z,98.30
2019-04-30T21:28:24.858Z,98.50
2019-04-30T21:30:46.209Z,98.70
2019-04-30T21:33:19.337Z,98.60
2019-04-30T21:35:43.058Z,99.10
2019-04-30T21:38:04.350Z,99.50
2019-04-30T21:40:25.565Z,99.50
2019-04-30T21:42:46.750Z,99.30
2019-04-30T21:45:07.953Z,99.40
2019-04-30T21:47:29.142Z,99.90
2019-04-30T21:49:50.581Z,99.90
2019-04-30T21:52:11.766Z,99.90
2019-04-30T21:54:32.973Z,99.90
2019-04-30T21:56:54.311Z,99.90
2019-04-30T21:59:24.336Z,99.90
2019-04-30T22:01:39.268Z,99.90
2019-04-30T22:04:00.884Z,99.90
2019-04-30T22:06:22.085Z,99.90
2019-04-30T22:08:43.810Z,99.90
2019-04-30T22:11:05.356Z,99.90
2019-04-30T22:13:26.747Z,99.90
2019-04-30T22:15:48.115Z,99.90
2019-04-30T22:18:09.380Z,99.90
2019-04-30T22:20:30.981Z,99.90
2019-04-30T22:22:52.173Z,99.90
2019-04-30T22:25:13.491Z,99.90
2019-04-30T22:27:34.925Z,99.90
2019-04-30T22:29:57.112Z,99.90
2019-04-30T22:32:18.304Z,99.90
2019-04-30T22:34:39.510Z,99.90
2019-04-30T22:37:00.712Z,99.90
2019-04-30T22:39:40.300Z,99.90
2019-04-30T22:42:26.848Z,99.90
2019-04-30T22:44:48.054Z,99.90
2019-04-30T22:47:09.359Z,99.90
2019-04-30T22:49:30.545Z,99.90
2019-04-30T22:51:51.744Z,99.90
2019-04-30T22:54:12.943Z,99.90
2019-04-30T22:56:34.154Z,99.90
2019-04-30T22:58:55.378Z,99.90
2019-04-30T23:01:27.717Z,99.90
2019-04-30T23:03:50.840Z,99.90
2019-04-30T23:06:12.034Z,99.90
2019-04-30T23:08:33.238Z,99.90
2019-04-30T23:10:54.537Z,99.90
2019-04-30T23:13:16.499Z,99.90
2019-04-30T23:15:38.323Z,99.90
2019-04-30T23:17:59.649Z,99.90
2019-04-30T23:20:20.853Z,99.90
2019-04-30T23:22:42.071Z,99.90
2019-04-30T23:25:05.255Z,99.90
2019-04-30T23:27:26.456Z,99.90
2019-04-30T23:29:47.658Z,99.90
2019-04-30T23:32:08.871Z,99.90
2019-04-30T23:34:30.082Z,99.90
2019-04-30T23:36:51.277Z,99.90
2019-04-30T23:39:12.548Z,99.90
2019-04-30T23:41:33.753Z,99.90
2019-04-30T23:43:55.116Z,99.90
2019-04-30T23:46:16.433Z,99.90
2019-04-30T23:48:37.629Z,99.90
2019-04-30T23:51:00.720Z,99.90
2019-04-30T23:53:21.909Z,99.90
2019-04-30T23:55:43.107Z,99.90
2019-04-30T23:58:05.455Z,99.90
